Time;durP1;ratioP1;P1;durP2;ratioP2;P2;SDS_P1;SDS_P2;PMS_P1;PMS_P2;Temp;Humidity;BMP_temperature;BMP_pressure;BME280_temperature;BME280_humidity;BME280_pressure;Samples;Min_cycle;Max_cycle;Signal;HPM_P1;HPM_P2
2022/11/30 00:00:50;;;;;;;17.67;11.57;;;1.90;99.90;;;;;;4993877;28;20228;-70
2022/11/30 00:03:18;;;;;;;16.73;11.10;;;1.90;99.90;;;;;;4992956;28;20259;-69
2022/11/30 00:05:46;;;;;;;16.67;10.13;;;1.90;99.90;;;;;;4991238;28;20211;-68
2022/11/30 00:08:12;;;;;;;17.17;11.43;;;1.90;99.90;;;;;;4991552;28;20200;-70
2022/11/30 00:10:40;;;;;;;16.37;11.13;;;1.90;99.90;;;;;;4995316;28;20212;-69
2022/11/30 00:13:07;;;;;;;20.20;12.17;;;1.90;99.90;;;;;;4993927;28;20579;-68
2022/11/30 00:15:34;;;;;;;21.23;11.83;;;1.80;99.90;;;;;;4993516;28;20204;-70
2022/11/30 00:18:00;;;;;;;18.50;11.60;;;1.90;99.90;;;;;;4995072;28;20223;-70
2022/11/30 00:20:28;;;;;;;17.40;11.63;;;1.90;99.90;;;;;;4995233;28;20212;-68
2022/11/30 00:22:57;;;;;;;18.60;11.90;;;1.90;99.90;;;;;;4994400;28;20240;-68
2022/11/30 00:25:24;;;;;;;19.37;12.03;;;1.90;99.90;;;;;;4993039;28;20207;-68
2022/11/30 00:27:51;;;;;;;18.60;11.93;;;1.90;99.90;;;;;;4991809;28;20569;-68
2022/11/30 00:30:18;;;;;;;17.93;11.50;;;1.90;99.90;;;;;;4992821;28;20215;-69
2022/11/30 00:32:44;;;;;;;17.53;11.67;;;1.90;99.90;;;;;;4993946;28;20596;-67
2022/11/30 00:35:11;;;;;;;17.70;11.80;;;1.90;99.90;;;;;;4995172;28;20235;-70
2022/11/30 00:37:38;;;;;;;18.00;11.83;;;1.90;99.90;;;;;;4993299;28;20590;-68
2022/11/30 00:40:07;;;;;;;18.00;10.73;;;1.80;99.90;;;;;;4993519;28;20628;-68
2022/11/30 00:42:34;;;;;;;16.70;10.33;;;1.80;99.90;;;;;;4993911;28;20239;-70
2022/11/30 00:45:01;;;;;;;18.27;11.67;;;1.80;99.90;;;;;;4994565;28;20207;-68
2022/11/30 00:47:28;;;;;;;14.70;10.27;;;1.80;99.90;;;;;;4994123;28;20208;-69
2022/11/30 00:49:55;;;;;;;16.90;10.80;;;1.80;99.90;;;;;;4995090;28;20223;-70
2022/11/30 00:52:21;;;;;;;16.17;10.67;;;1.80;99.90;;;;;;4995524;28;20220;-71
2022/11/30 00:54:48;;;;;;;19.70;11.13;;;1.80;99.90;;;;;;4994835;28;20218;-68
2022/11/30 00:57:16;;;;;;;18.30;11.40;;;1.80;99.90;;;;;;4995678;28;20299;-69
2022/11/30 00:59:43;;;;;;;17.50;11.67;;;1.80;99.90;;;;;;4994878;28;20228;-70
2022/11/30 01:02:10;;;;;;;18.97;12.07;;;1.80;99.90;;;;;;4993751;28;20215;-69
2022/11/30 01:04:37;;;;;;;17.27;10.73;;;1.90;99.90;;;;;;4996430;28;20679;-68
2022/11/30 01:07:03;;;;;;;18.30;12.93;;;1.90;99.90;;;;;;4995289;28;20673;-68
2022/11/30 01:09:30;;;;;;;18.60;11.17;;;1.90;99.90;;;;;;4994548;28;20653;-67
2022/11/30 01:11:57;;;;;;;17.50;11.47;;;1.90;99.90;;;;;;4994267;28;20211;-66
2022/11/30 01:14:25;;;;;;;17.47;11.33;;;1.90;99.90;;;;;;4994231;28;20592;-68
2022/11/30 01:16:52;;;;;;;18.17;10.93;;;1.90;99.90;;;;;;4994985;28;21378;-69
2022/11/30 01:19:19;;;;;;;18.00;10.57;;;1.90;99.90;;;;;;4995235;28;20218;-67
2022/11/30 01:21:45;;;;;;;17.43;10.77;;;2.00;99.90;;;;;;4994400;28;20207;-67
2022/11/30 01:24:12;;;;;;;18.13;11.70;;;1.90;99.90;;;;;;4994103;28;20323;-69
2022/11/30 01:26:39;;;;;;;19.67;12.00;;;1.90;99.90;;;;;;4996060;28;20203;-68
2022/11/30 01:29:06;;;;;;;16.10;10.77;;;1.90;99.90;;;;;;4994975;28;20216;-68
2022/11/30 01:31:35;;;;;;;17.00;11.00;;;1.90;99.90;;;;;;4990858;28;20215;-71
2022/11/30 01:34:02;;;;;;;15.47;10.23;;;1.90;99.90;;;;;;4993612;28;20231;-69
2022/11/30 01:36:29;;;;;;;16.10;10.63;;;1.90;99.90;;;;;;4995499;28;20212;-69
2022/11/30 01:38:57;;;;;;;15.20;10.57;;;1.90;99.90;;;;;;4996100;28;20235;-66
2022/11/30 01:41:26;;;;;;;18.77;11.37;;;1.90;99.90;;;;;;4998400;28;20211;-68
2022/11/30 01:43:54;;;;;;;19.30;11.30;;;1.90;99.90;;;;;;4999033;28;20219;-68
2022/11/30 01:46:26;;;;;;;17.00;10.53;;;1.90;99.90;;;;;;5000013;28;20251;-69
2022/11/30 01:49:01;;;;;;;18.67;10.93;;;1.90;99.90;;;;;;4996579;28;20227;-67
2022/11/30 01:51:34;;;;;;;19.23;11.30;;;1.90;99.90;;;;;;4996498;28;20206;-69
2022/11/30 01:54:01;;;;;;;16.33;9.87;;;2.00;99.90;;;;;;4999248;28;20208;-68
2022/11/30 01:56:28;;;;;;;17.67;10.30;;;1.90;99.90;;;;;;4998835;28;20566;-69
2022/11/30 01:58:55;;;;;;;18.10;9.80;;;1.90;99.90;;;;;;4998796;28;20216;-70
2022/11/30 02:01:22;;;;;;;18.40;11.10;;;1.90;99.90;;;;;;4998463;28;20238;-69
2022/11/30 02:03:56;;;;;;;17.23;10.80;;;1.90;99.90;;;;;;4997795;28;20230;-68
2022/11/30 02:06:25;;;;;;;17.57;10.80;;;1.90;99.90;;;;;;4998405;28;20668;-68
2022/11/30 02:08:53;;;;;;;16.93;10.80;;;2.00;99.90;;;;;;4998869;28;20467;-68
2022/11/30 02:11:20;;;;;;;14.97;10.27;;;2.00;99.90;;;;;;4997514;28;20215;-67
2022/11/30 02:14:12;;;;;;;20.80;11.47;;;2.00;99.90;;;;;;4999360;28;20204;-69
2022/11/30 02:16:53;;;;;;;19.23;11.13;;;2.00;99.90;;;;;;4991992;28;20204;-70
2022/11/30 02:19:57;;;;;;;16.33;10.80;;;2.00;99.90;;;;;;4997794;28;20199;-68
2022/11/30 02:22:38;;;;;;;18.83;10.97;;;2.00;99.90;;;;;;4994681;28;20207;-71
2022/11/30 02:25:13;;;;;;;22.90;11.47;;;2.10;99.90;;;;;;4998525;28;20207;-70
2022/11/30 02:27:56;;;;;;;16.57;10.47;;;2.00;99.90;;;;;;4997113;28;20195;-69
2022/11/30 02:30:25;;;;;;;18.87;11.57;;;2.00;99.90;;;;;;4996780;28;20200;-69
2022/11/30 02:32:56;;;;;;;20.23;10.77;;;2.10;99.90;;;;;;4995547;28;20223;-71
2022/11/30 02:35:27;;;;;;;18.40;11.47;;;2.00;99.90;;;;;;5003508;28;20196;-70
2022/11/30 02:37:56;;;;;;;17.03;12.13;;;2.00;99.90;;;;;;5012416;28;20202;-70
2022/11/30 02:40:24;;;;;;;20.47;12.47;;;2.00;99.90;;;;;;5016919;28;20206;-71
2022/11/30 02:42:52;;;;;;;21.27;12.33;;;2.00;99.90;;;;;;5009030;28;20196;-70
2022/11/30 02:45:22;;;;;;;20.37;11.83;;;2.00;99.90;;;;;;4997019;28;20219;-68
2022/11/30 02:47:57;;;;;;;18.60;11.83;;;2.00;99.90;;;;;;4997378;28;20211;-69
2022/11/30 02:50:29;;;;;;;17.70;11.10;;;2.00;99.90;;;;;;4997967;28;20211;-69
2022/11/30 02:52:57;;;;;;;20.67;11.87;;;2.00;99.90;;;;;;4993607;28;20211;-69
2022/11/30 02:55:24;;;;;;;21.50;11.70;;;2.00;99.90;;;;;;4995255;28;20208;-68
2022/11/30 02:57:51;;;;;;;21.47;12.67;;;2.00;99.90;;;;;;4997372;28;20204;-71
2022/11/30 03:00:18;;;;;;;20.43;12.03;;;2.00;99.90;;;;;;4997051;28;20239;-71
2022/11/30 03:02:45;;;;;;;20.57;12.00;;;2.00;99.90;;;;;;4994080;28;20208;-71
2022/11/30 03:05:13;;;;;;;21.77;12.03;;;2.00;99.90;;;;;;4994531;28;20295;-71
2022/11/30 03:07:40;;;;;;;20.40;12.23;;;2.00;99.90;;;;;;4992704;28;20212;-71
2022/11/30 03:10:08;;;;;;;20.40;13.00;;;2.00;99.90;;;;;;4994161;28;20207;-71
2022/11/30 03:12:35;;;;;;;21.97;11.77;;;2.00;99.90;;;;;;4989626;28;20565;-72
2022/11/30 03:15:02;;;;;;;20.93;12.20;;;2.00;99.90;;;;;;4993819;28;20571;-72
2022/11/30 03:17:28;;;;;;;18.60;11.83;;;2.00;99.90;;;;;;4992985;28;20207;-71
2022/11/30 03:19:55;;;;;;;22.70;12.63;;;2.00;99.90;;;;;;4988213;28;20238;-72
2022/11/30 03:22:24;;;;;;;20.37;12.50;;;2.00;99.90;;;;;;4989081;28;20675;-72
2022/11/30 03:24:50;;;;;;;23.47;13.17;;;2.00;99.90;;;;;;4994206;28;20800;-71
2022/11/30 03:27:17;;;;;;;20.43;11.67;;;2.00;99.90;;;;;;4992563;28;20211;-72
2022/11/30 03:29:44;;;;;;;20.87;11.57;;;2.00;99.90;;;;;;4989604;28;20204;-73
2022/11/30 03:32:11;;;;;;;19.00;11.73;;;2.00;99.90;;;;;;4992429;28;20216;-72
2022/11/30 03:34:37;;;;;;;17.40;11.50;;;2.00;99.90;;;;;;4992338;28;20288;-73
2022/11/30 03:37:04;;;;;;;17.07;10.27;;;2.00;99.90;;;;;;4992260;28;21007;-71
2022/11/30 03:39:33;;;;;;;16.10;10.43;;;2.00;99.90;;;;;;4991675;28;20298;-71
2022/11/30 03:41:59;;;;;;;19.00;12.23;;;2.20;99.90;;;;;;4993687;28;20204;-70
2022/11/30 03:44:26;;;;;;;18.00;12.20;;;1.90;99.90;;;;;;4992441;28;20224;-72
2022/11/30 03:46:53;;;;;;;19.37;12.07;;;1.90;99.90;;;;;;4991539;28;20556;-71
2022/11/30 03:49:20;;;;;;;20.90;12.47;;;2.00;99.90;;;;;;4991130;28;20680;-72
2022/11/30 03:51:47;;;;;;;18.37;11.50;;;1.90;99.90;;;;;;4992713;28;20242;-73
2022/11/30 03:54:13;;;;;;;19.00;11.47;;;2.00;99.90;;;;;;4992249;28;20708;-72
2022/11/30 03:56:42;;;;;;;17.80;11.43;;;2.00;99.90;;;;;;4993059;28;20219;-72
2022/11/30 03:59:08;;;;;;;19.37;11.60;;;2.00;99.90;;;;;;4992055;28;20226;-72
2022/11/30 04:01:35;;;;;;;22.07;13.27;;;2.00;99.90;;;;;;4992440;28;20216;-71
2022/11/30 04:04:02;;;;;;;17.17;11.53;;;2.00;99.90;;;;;;4990833;28;20584;-71
2022/11/30 04:06:29;;;;;;;16.63;11.13;;;2.00;99.90;;;;;;4993328;28;20200;-71
2022/11/30 04:08:56;;;;;;;21.00;12.37;;;2.00;99.90;;;;;;4992396;28;20227;-71
2022/11/30 04:11:23;;;;;;;19.80;11.97;;;2.00;99.90;;;;;;4992763;28;20200;-72
2022/11/30 04:13:51;;;;;;;17.27;10.47;;;2.00;99.90;;;;;;4990363;28;20688;-72
2022/11/30 04:16:18;;;;;;;20.93;12.10;;;2.10;99.90;;;;;;4990375;28;20687;-72
2022/11/30 04:18:44;;;;;;;16.60;11.27;;;2.10;99.90;;;;;;4990384;28;20204;-72
2022/11/30 04:21:11;;;;;;;19.20;11.07;;;2.10;99.90;;;;;;4990600;28;20208;-71
2022/11/30 04:23:40;;;;;;;18.43;11.27;;;2.20;99.90;;;;;;4991749;28;20748;-72
2022/11/30 04:26:09;;;;;;;17.80;11.67;;;2.20;99.90;;;;;;4992700;28;20212;-73
2022/11/30 04:28:35;;;;;;;17.17;12.03;;;2.20;99.90;;;;;;4989147;28;20208;-72
2022/11/30 04:31:03;;;;;;;19.17;11.97;;;2.20;99.90;;;;;;4991964;28;20567;-70
2022/11/30 04:33:31;;;;;;;17.20;10.90;;;2.20;99.90;;;;;;4990653;28;20207;-70
2022/11/30 04:35:59;;;;;;;18.30;11.47;;;2.20;99.90;;;;;;4991349;28;20580;-72
2022/11/30 04:38:26;;;;;;;16.63;11.03;;;2.20;99.90;;;;;;4989004;28;20632;-72
2022/11/30 04:40:53;;;;;;;18.77;12.13;;;2.20;99.90;;;;;;4992810;28;20200;-73
2022/11/30 04:43:20;;;;;;;19.40;11.37;;;2.20;99.90;;;;;;4990714;28;20208;-74
2022/11/30 04:45:48;;;;;;;19.37;12.40;;;2.20;99.90;;;;;;4981795;28;20207;-74
2022/11/30 04:48:17;;;;;;;19.70;11.53;;;2.20;99.90;;;;;;4991239;28;20204;-70
2022/11/30 04:50:44;;;;;;;21.13;11.60;;;2.20;99.90;;;;;;4992570;28;20208;-74
2022/11/30 04:53:12;;;;;;;18.20;12.10;;;2.20;99.90;;;;;;4990686;28;20208;-73
2022/11/30 04:55:39;;;;;;;19.47;11.63;;;2.30;99.90;;;;;;4987676;28;20207;-73
2022/11/30 04:58:07;;;;;;;20.47;11.27;;;2.30;99.90;;;;;;4991524;28;20640;-72
2022/11/30 05:00:34;;;;;;;17.43;11.37;;;2.30;99.90;;;;;;4990455;28;20228;-71
2022/11/30 05:03:01;;;;;;;17.60;10.77;;;2.30;99.90;;;;;;4989423;28;20708;-72
2022/11/30 05:05:29;;;;;;;16.10;10.43;;;2.30;99.90;;;;;;4991148;28;20238;-71
2022/11/30 05:07:58;;;;;;;17.43;10.03;;;2.30;99.90;;;;;;4989688;28;20250;-72
2022/11/30 05:10:25;;;;;;;19.57;10.70;;;2.30;99.90;;;;;;4991183;28;20868;-73
2022/11/30 05:12:52;;;;;;;17.37;11.23;;;2.20;99.90;;;;;;4988072;28;20212;-73
2022/11/30 05:15:19;;;;;;;19.10;11.60;;;2.20;99.90;;;;;;4990357;28;20302;-72
2022/11/30 05:17:46;;;;;;;17.87;10.97;;;2.20;99.90;;;;;;4989803;28;20674;-72
2022/11/30 05:20:13;;;;;;;16.97;10.83;;;2.20;99.90;;;;;;4990591;28;20739;-71
2022/11/30 05:22:41;;;;;;;18.67;11.47;;;2.20;99.90;;;;;;4990935;28;20905;-72
2022/11/30 05:25:09;;;;;;;18.80;11.00;;;2.20;99.90;;;;;;4990322;28;20246;-71
2022/11/30 05:27:36;;;;;;;19.53;11.43;;;2.20;99.90;;;;;;4988987;28;20203;-70
2022/11/30 05:30:03;;;;;;;18.40;11.67;;;2.20;99.90;;;;;;4989663;28;20212;-70
2022/11/30 05:32:29;;;;;;;18.53;11.67;;;2.20;99.90;;;;;;4986751;28;20212;-71
2022/11/30 05:34:56;;;;;;;15.90;11.20;;;2.20;99.90;;;;;;4986863;28;20215;-69
2022/11/30 05:37:23;;;;;;;17.30;11.03;;;2.20;99.90;;;;;;4990368;28;20579;-71
2022/11/30 05:39:51;;;;;;;18.13;10.73;;;2.10;99.90;;;;;;4988142;28;20734;-71
2022/11/30 05:42:20;;;;;;;16.43;10.67;;;2.20;99.90;;;;;;4987548;28;20653;-69
2022/11/30 05:44:47;;;;;;;16.27;10.50;;;2.20;99.90;;;;;;4986372;28;20231;-70
2022/11/30 05:47:14;;;;;;;15.17;9.60;;;2.20;99.90;;;;;;4987109;28;20562;-71
2022/11/30 05:49:41;;;;;;;16.37;10.40;;;2.20;99.90;;;;;;4988457;28;20219;-70
2022/11/30 05:52:07;;;;;;;16.53;10.13;;;2.10;99.90;;;;;;4989155;28;20222;-70
2022/11/30 05:54:34;;;;;;;17.53;11.03;;;2.10;99.90;;;;;;4987971;28;20215;-70
2022/11/30 05:57:04;;;;;;;16.03;10.47;;;2.10;99.90;;;;;;4987321;28;20215;-70
2022/11/30 05:59:31;;;;;;;15.53;10.93;;;2.10;99.90;;;;;;4986833;28;20318;-70
2022/11/30 06:01:57;;;;;;;16.27;10.80;;;2.10;99.90;;;;;;4984718;28;20211;-71
2022/11/30 06:04:24;;;;;;;14.73;10.20;;;2.10;99.90;;;;;;4986487;28;20231;-71
2022/11/30 06:06:54;;;;;;;14.87;10.33;;;2.10;99.90;;;;;;4988449;28;20219;-68
2022/11/30 06:09:21;;;;;;;15.82;10.60;;;2.10;99.90;;;;;;4974923;28;20507;-68
2022/11/30 06:11:48;;;;;;;12.67;9.67;;;2.20;99.90;;;;;;4984597;28;20235;-75
2022/11/30 06:14:17;;;;;;;15.60;10.17;;;2.10;99.90;;;;;;4985846;28;20204;-73
2022/11/30 06:16:44;;;;;;;16.83;10.43;;;2.10;99.90;;;;;;4981547;28;20653;-74
2022/11/30 06:19:12;;;;;;;14.63;9.70;;;2.10;99.90;;;;;;4981276;28;20216;-73
2022/11/30 06:21:38;;;;;;;16.07;10.07;;;2.00;99.90;;;;;;4982206;28;20212;-72
2022/11/30 06:24:06;;;;;;;18.63;12.90;;;2.00;99.90;;;;;;4988575;28;20456;-75
2022/11/30 06:26:33;;;;;;;18.23;11.27;;;2.00;99.90;;;;;;4989590;28;20205;-72
2022/11/30 06:28:59;;;;;;;17.30;10.90;;;2.00;99.90;;;;;;4989653;28;20207;-73
2022/11/30 06:31:28;;;;;;;19.03;10.53;;;2.00;99.90;;;;;;4984133;28;20208;-72
2022/11/30 06:33:57;;;;;;;18.07;11.40;;;2.00;99.90;;;;;;4984504;28;20208;-71
2022/11/30 06:36:24;;;;;;;14.83;10.37;;;2.00;99.90;;;;;;4990379;28;20329;-75
2022/11/30 06:38:52;;;;;;;18.63;11.23;;;2.00;99.90;;;;;;4991863;28;20239;-72
2022/11/30 06:41:19;;;;;;;16.27;11.17;;;2.00;99.90;;;;;;4990711;28;20660;-73
2022/11/30 06:43:46;;;;;;;16.90;11.47;;;2.00;99.90;;;;;;4993823;28;20208;-69
2022/11/30 06:46:13;;;;;;;17.47;10.83;;;2.00;99.90;;;;;;4994420;28;20216;-72
2022/11/30 06:48:42;;;;;;;15.40;10.23;;;2.00;99.90;;;;;;4989387;28;20286;-71
2022/11/30 06:51:09;;;;;;;16.83;10.10;;;2.00;99.90;;;;;;4994930;28;20220;-72
2022/11/30 06:53:37;;;;;;;16.53;11.03;;;2.00;99.90;;;;;;4992652;28;20235;-71
2022/11/30 06:56:06;;;;;;;17.90;11.13;;;2.00;99.90;;;;;;4996375;28;20270;-73
2022/11/30 06:58:33;;;;;;;18.17;12.20;;;2.00;99.90;;;;;;4996547;28;20204;-72
2022/11/30 07:01:00;;;;;;;20.13;12.23;;;1.90;99.90;;;;;;4994105;28;20700;-70
2022/11/30 07:03:27;;;;;;;19.20;12.00;;;1.90;99.90;;;;;;4992308;28;20583;-70
2022/11/30 07:05:55;;;;;;;20.07;12.37;;;1.90;99.90;;;;;;4995723;28;20263;-71
2022/11/30 07:08:22;;;;;;;19.67;12.00;;;1.90;99.90;;;;;;4996403;28;20657;-71
2022/11/30 07:10:49;;;;;;;16.83;9.73;;;2.00;99.90;;;;;;5000177;28;20208;-76
2022/11/30 07:13:17;;;;;;;16.83;11.13;;;2.00;99.90;;;;;;4998424;28;20216;-74
2022/11/30 07:15:45;;;;;;;17.90;11.50;;;2.00;99.90;;;;;;4998039;28;20291;-74
2022/11/30 07:18:12;;;;;;;18.10;11.70;;;2.00;99.90;;;;;;5037290;22;20326;-71
2022/11/30 07:20:39;;;;;;;18.20;10.93;;;2.00;99.90;;;;;;5002935;28;20291;-71
2022/11/30 07:26:09;;;;;;;17.90;10.53;;;2.00;99.90;;;;;;4986183;28;20227;-67
2022/11/30 07:28:37;;;;;;;18.20;11.60;;;2.00;99.90;;;;;;4995996;28;20211;-72
2022/11/30 07:31:14;;;;;;;19.23;11.50;;;2.00;99.90;;;;;;4999104;28;20222;-65
2022/11/30 07:33:41;;;;;;;19.43;12.40;;;2.00;99.90;;;;;;4997410;28;20200;-67
2022/11/30 07:36:08;;;;;;;19.27;11.87;;;2.00;99.90;;;;;;4995936;28;20207;-68
2022/11/30 07:38:36;;;;;;;17.47;11.57;;;2.00;99.90;;;;;;4996214;28;20219;-71
2022/11/30 07:41:03;;;;;;;19.57;12.87;;;2.00;99.90;;;;;;4997984;28;20695;-65
2022/11/30 07:43:31;;;;;;;18.93;12.27;;;2.00;99.90;;;;;;4995049;28;20210;-64
2022/11/30 07:45:58;;;;;;;27.27;12.13;;;2.00;99.90;;;;;;4991341;28;20235;-63
2022/11/30 07:48:25;;;;;;;20.93;12.80;;;2.10;99.90;;;;;;4991176;28;20687;-63
2022/11/30 07:50:51;;;;;;;18.80;11.83;;;2.10;99.90;;;;;;4986768;28;20200;-65
2022/11/30 07:53:18;;;;;;;22.77;12.67;;;2.10;99.90;;;;;;4986355;28;20604;-63
2022/11/30 07:55:46;;;;;;;20.97;12.03;;;2.10;99.90;;;;;;4994412;28;20211;-62
2022/11/30 07:58:13;;;;;;;25.17;13.40;;;2.10;99.90;;;;;;4999146;28;20607;-63
2022/11/30 08:00:40;;;;;;;19.27;12.30;;;2.10;99.90;;;;;;4996002;28;20239;-61
2022/11/30 08:03:06;;;;;;;19.30;11.27;;;2.10;99.90;;;;;;4996358;28;20208;-62
2022/11/30 08:05:33;;;;;;;19.80;12.17;;;2.10;99.90;;;;;;4993940;28;20588;-62
2022/11/30 08:08:00;;;;;;;16.77;11.60;;;2.10;99.90;;;;;;4992827;28;20688;-62
2022/11/30 08:10:27;;;;;;;18.43;12.37;;;2.10;99.90;;;;;;4995228;28;20211;-67
2022/11/30 08:12:55;;;;;;;22.88;15.05;;;2.10;99.90;;;;;;4987555;28;20456;-65
2022/11/30 08:15:22;;;;;;;19.30;12.30;;;2.10;99.90;;;;;;4977297;28;20205;-64
2022/11/30 08:17:53;;;;;;;24.30;16.17;;;2.10;99.90;;;;;;4986239;28;20444;-64
2022/11/30 08:20:21;;;;;;;20.00;12.97;;;2.10;99.90;;;;;;4987782;28;20204;-65
2022/11/30 08:22:48;;;;;;;20.48;14.80;;;2.10;99.90;;;;;;4971952;28;20449;-64
2022/11/30 08:25:14;;;;;;;21.85;15.75;;;2.10;99.90;;;;;;4982479;28;20806;-67
2022/11/30 08:27:41;;;;;;;18.77;13.53;;;2.10;99.90;;;;;;4994828;28;20207;-68
2022/11/30 08:30:10;;;;;;;21.30;12.37;;;2.10;99.90;;;;;;4992030;28;20215;-67
2022/11/30 08:32:37;;;;;;;19.07;12.07;;;2.10;99.90;;;;;;4996231;28;20218;-68
2022/11/30 08:35:05;;;;;;;19.17;12.27;;;2.10;99.90;;;;;;4997748;28;20210;-67
2022/11/30 08:37:35;;;;;;;20.83;12.07;;;2.10;99.90;;;;;;4994891;28;20206;-67
2022/11/30 08:40:02;;;;;;;19.30;11.10;;;2.20;99.90;;;;;;4992601;28;20216;-68
2022/11/30 08:42:29;;;;;;;19.37;11.63;;;2.20;99.90;;;;;;4994365;28;20184;-69
2022/11/30 08:44:56;;;;;;;19.83;12.10;;;2.30;99.90;;;;;;4998700;28;20232;-68
2022/11/30 08:47:24;;;;;;;18.03;11.43;;;2.20;99.90;;;;;;4993645;28;20303;-69
2022/11/30 08:49:50;;;;;;;18.30;12.17;;;2.10;99.90;;;;;;4989453;28;20208;-69
2022/11/30 08:52:17;;;;;;;19.47;11.20;;;2.10;99.90;;;;;;4995337;28;20214;-71
2022/11/30 08:54:45;;;;;;;19.30;12.50;;;2.10;99.90;;;;;;4991108;28;20207;-73
2022/11/30 08:57:12;;;;;;;19.73;11.87;;;2.10;99.90;;;;;;4992297;28;20212;-73
2022/11/30 08:59:38;;;;;;;18.33;11.50;;;2.20;99.90;;;;;;4986450;28;20325;-75
2022/11/30 09:02:06;;;;;;;18.20;11.83;;;2.10;99.90;;;;;;5006199;28;20692;-71
2022/11/30 09:04:34;;;;;;;15.00;9.40;;;2.10;99.90;;;;;;5012958;28;20208;-68
2022/11/30 09:07:01;;;;;;;13.13;9.27;;;2.10;99.90;;;;;;5009003;28;20200;-72
2022/11/30 09:09:27;;;;;;;15.73;10.20;;;2.10;99.90;;;;;;5009009;28;20195;-71
2022/11/30 09:11:55;;;;;;;15.67;10.47;;;2.10;99.90;;;;;;5007781;28;20334;-68
2022/11/30 09:14:21;;;;;;;16.73;11.23;;;2.10;99.90;;;;;;5007073;28;20214;-71
2022/11/30 09:16:48;;;;;;;19.27;11.50;;;2.10;99.90;;;;;;5005334;28;20228;-69
2022/11/30 09:19:15;;;;;;;17.13;11.43;;;2.00;99.90;;;;;;5006039;28;20385;-70
2022/11/30 09:21:43;;;;;;;17.50;11.03;;;2.00;99.90;;;;;;5007599;28;20206;-70
2022/11/30 09:24:10;;;;;;;17.87;11.50;;;2.00;99.90;;;;;;5005873;28;20192;-70
2022/11/30 09:26:37;;;;;;;18.63;11.67;;;2.10;99.90;;;;;;5003076;28;20822;-71
2022/11/30 09:29:04;;;;;;;20.73;13.17;;;2.10;99.90;;;;;;5009486;28;20267;-71
2022/11/30 09:31:31;;;;;;;16.93;10.67;;;2.10;99.90;;;;;;4992646;28;20197;-71
2022/11/30 09:33:58;;;;;;;16.80;10.70;;;2.10;99.90;;;;;;4982489;28;20226;-72
2022/11/30 09:36:27;;;;;;;17.60;12.47;;;2.00;99.90;;;;;;4980226;28;20208;-72
2022/11/30 09:38:57;;;;;;;17.50;11.67;;;2.10;99.90;;;;;;4975937;28;20254;-71
2022/11/30 09:41:58;;;;;;;16.43;10.70;;;2.10;99.90;;;;;;4993687;28;20287;-67
2022/11/30 09:44:31;;;;;;;19.77;12.20;;;2.10;99.90;;;;;;4983260;28;20216;-69
2022/11/30 09:47:07;;;;;;;20.30;12.30;;;2.10;99.90;;;;;;5005629;28;20218;-67
2022/11/30 09:49:37;;;;;;;19.50;12.03;;;2.10;99.90;;;;;;5011455;28;20247;-68
2022/11/30 09:52:11;;;;;;;23.50;13.70;;;2.10;99.90;;;;;;5010240;28;20204;-70
2022/11/30 09:54:41;;;;;;;19.80;12.40;;;2.10;99.90;;;;;;5007510;28;20208;-71
2022/11/30 09:57:23;;;;;;;19.90;12.50;;;2.10;99.90;;;;;;5007649;28;20211;-71
2022/11/30 09:59:54;;;;;;;20.83;12.40;;;2.20;99.90;;;;;;4995512;28;20723;-68
2022/11/30 10:02:27;;;;;;;20.00;11.80;;;2.20;99.90;;;;;;4996495;28;20215;-68
2022/11/30 10:04:54;;;;;;;17.77;9.83;;;2.20;99.90;;;;;;4990044;28;20227;-69
2022/11/30 10:07:36;;;;;;;16.37;9.63;;;2.20;99.90;;;;;;4984567;28;20209;-68
2022/11/30 10:10:15;;;;;;;17.00;10.93;;;2.20;99.90;;;;;;4991864;28;20209;-69
2022/11/30 10:12:47;;;;;;;16.93;11.50;;;2.20;99.90;;;;;;4982242;28;20432;-70
2022/11/30 10:15:26;;;;;;;17.87;11.03;;;2.20;99.90;;;;;;4992402;28;20263;-70
2022/11/30 10:17:55;;;;;;;13.80;8.33;;;2.20;99.90;;;;;;4992551;28;20530;-69
2022/11/30 10:20:46;;;;;;;12.97;8.80;;;2.20;99.90;;;;;;4994289;28;20222;-68
2022/11/30 10:23:23;;;;;;;15.33;9.33;;;2.20;99.90;;;;;;4988547;28;20203;-68
2022/11/30 10:25:56;;;;;;;17.17;9.53;;;2.30;99.90;;;;;;4991514;28;20215;-68
2022/11/30 10:28:36;;;;;;;13.67;9.50;;;2.20;99.90;;;;;;4995130;28;20204;-68
2022/11/30 10:31:04;;;;;;;11.87;8.60;;;2.30;99.90;;;;;;4992736;28;20540;-69
2022/11/30 10:33:39;;;;;;;15.50;9.40;;;2.40;99.90;;;;;;4980807;28;20894;-70
2022/11/30 10:36:12;;;;;;;15.17;9.47;;;2.30;99.90;;;;;;4987074;28;20199;-70
2022/11/30 10:38:43;;;;;;;15.83;9.57;;;2.30;99.90;;;;;;4985633;28;20200;-71
2022/11/30 10:41:16;;;;;;;14.07;9.50;;;2.30;99.90;;;;;;4988040;28;20665;-70
2022/11/30 10:43:48;;;;;;;13.50;8.47;;;2.30;99.90;;;;;;4993135;28;20203;-69
2022/11/30 10:46:21;;;;;;;12.33;8.57;;;2.40;99.90;;;;;;4992859;28;20216;-71
2022/11/30 10:48:51;;;;;;;14.63;9.37;;;2.40;99.90;;;;;;4992923;28;20219;-71
2022/11/30 10:51:18;;;;;;;15.03;9.33;;;2.30;99.90;;;;;;4992886;28;20215;-71
2022/11/30 10:53:45;;;;;;;13.43;9.03;;;2.30;99.90;;;;;;4992951;28;20680;-71
2022/11/30 10:56:15;;;;;;;16.90;9.60;;;2.30;99.90;;;;;;4992539;28;20200;-71
2022/11/30 10:58:51;;;;;;;12.40;8.83;;;2.30;99.90;;;;;;4992907;28;20212;-70
2022/11/30 11:01:34;;;;;;;14.60;9.13;;;2.30;99.90;;;;;;4992627;28;20227;-71
2022/11/30 11:04:15;;;;;;;13.90;8.53;;;2.40;99.90;;;;;;4992624;28;20208;-72
2022/11/30 11:06:45;;;;;;;16.60;7.63;;;2.40;99.90;;;;;;4990825;28;20652;-71
2022/11/30 11:09:33;;;;;;;16.10;9.93;;;2.40;99.90;;;;;;4992415;28;20203;-71
2022/11/30 11:12:03;;;;;;;14.93;8.90;;;2.40;99.90;;;;;;5001535;28;20204;-64
2022/11/30 11:14:30;;;;;;;13.73;8.50;;;2.40;99.90;;;;;;5012504;28;20208;-64
2022/11/30 11:16:59;;;;;;;13.93;8.57;;;2.40;99.90;;;;;;5011920;28;20243;-66
2022/11/30 11:19:35;;;;;;;14.80;8.97;;;2.40;99.90;;;;;;5012457;28;20231;-67
2022/11/30 11:22:05;;;;;;;12.87;8.97;;;2.40;99.90;;;;;;5012433;28;20198;-67
2022/11/30 11:24:33;;;;;;;14.90;9.70;;;2.40;99.90;;;;;;5012301;28;20208;-66
2022/11/30 11:27:02;;;;;;;15.80;9.30;;;2.40;99.90;;;;;;5009448;28;20227;-69
2022/11/30 11:29:32;;;;;;;15.43;9.10;;;2.50;99.90;;;;;;5013210;28;20223;-68
2022/11/30 11:32:23;;;;;;;15.13;9.47;;;2.30;99.90;;;;;;5012239;28;20198;-71
2022/11/30 11:34:50;;;;;;;12.70;8.20;;;2.40;99.90;;;;;;5010249;28;20265;-68
2022/11/30 11:37:23;;;;;;;14.23;8.50;;;2.30;99.90;;;;;;5008587;28;20677;-69
2022/11/30 11:40:03;;;;;;;13.67;9.10;;;2.30;99.90;;;;;;5000276;28;20201;-66
2022/11/30 11:42:34;;;;;;;15.47;8.30;;;2.30;99.90;;;;;;5009077;28;20207;-70
2022/11/30 11:45:02;;;;;;;12.97;8.70;;;2.30;99.90;;;;;;5000115;28;20210;-71
2022/11/30 11:47:37;;;;;;;17.43;9.50;;;2.40;99.90;;;;;;5001041;28;20219;-69
2022/11/30 11:50:24;;;;;;;11.57;7.03;;;2.40;99.90;;;;;;5004530;28;20221;-72
2022/11/30 11:52:51;;;;;;;16.03;10.20;;;;;;;;;;5002316;28;20223;-70
2022/11/30 11:55:20;;;;;;;17.03;9.77;;;2.30;99.90;;;;;;5007630;28;20214;-71
2022/11/30 11:57:56;;;;;;;13.33;8.77;;;2.40;99.90;;;;;;4994976;28;20213;-71
2022/11/30 12:00:24;;;;;;;13.77;8.63;;;2.40;99.90;;;;;;4994867;28;20227;-68
2022/11/30 12:02:58;;;;;;;15.20;8.27;;;2.40;99.90;;;;;;4996965;28;20266;-70
2022/11/30 12:05:29;;;;;;;11.33;7.77;;;2.40;99.90;;;;;;4984849;28;20557;-70
2022/11/30 12:08:10;;;;;;;16.27;8.27;;;2.40;99.90;;;;;;4997124;28;20606;-70
2022/11/30 12:10:41;;;;;;;15.90;9.47;;;2.50;99.90;;;;;;4995022;28;20410;-69
2022/11/30 12:13:17;;;;;;;10.60;7.83;;;2.40;99.90;;;;;;4996232;28;20227;-70
2022/11/30 12:15:56;;;;;;;16.63;8.77;;;2.50;99.90;;;;;;4989662;28;20203;-67
2022/11/30 12:18:29;;;;;;;12.20;7.63;;;2.40;99.90;;;;;;4998701;28;20244;-67
2022/11/30 12:21:00;;;;;;;10.33;7.00;;;2.50;99.90;;;;;;4996932;28;20204;-71
2022/11/30 12:23:46;;;;;;;12.03;7.80;;;2.40;99.90;;;;;;5000328;28;20751;-70
2022/11/30 12:26:22;;;;;;;13.93;8.20;;;2.50;99.90;;;;;;4991696;28;20242;-70
2022/11/30 12:29:15;;;;;;;10.17;6.77;;;2.50;99.90;;;;;;4998273;28;20211;-67
2022/11/30 12:31:56;;;;;;;14.33;7.67;;;2.50;99.90;;;;;;4988626;28;20204;-68
2022/11/30 12:34:35;;;;;;;9.60;7.33;;;2.40;99.90;;;;;;4981060;28;20208;-67
2022/11/30 12:37:08;;;;;;;13.73;8.10;;;2.40;99.90;;;;;;4985238;28;20180;-68
2022/11/30 12:39:44;;;;;;;11.13;7.27;;;2.40;99.90;;;;;;5003054;28;20230;-70
2022/11/30 12:42:16;;;;;;;13.10;7.33;;;2.40;99.90;;;;;;5002849;28;20206;-69
2022/11/30 12:44:54;;;;;;;13.03;7.53;;;2.40;99.90;;;;;;5000276;28;20196;-71
2022/11/30 12:47:37;;;;;;;15.50;9.00;;;2.40;99.90;;;;;;4997683;28;20659;-72
2022/11/30 12:50:20;;;;;;;13.53;8.90;;;2.50;99.90;;;;;;4985699;28;20220;-74
2022/11/30 12:52:55;;;;;;;13.90;8.73;;;2.30;99.90;;;;;;4987368;28;20515;-75
2022/11/30 12:55:32;;;;;;;13.50;8.30;;;2.30;99.90;;;;;;4989996;28;20212;-73